createdAt,value
2019-02-19T00:01:02.395Z,25.77
2019-02-19T00:03:31.033Z,22.97
2019-02-19T00:05:59.434Z,24.20
2019-02-19T00:08:27.854Z,24.60
2019-02-19T00:10:56.274Z,24.33
2019-02-19T00:13:24.608Z,24.63
2019-02-19T00:15:52.950Z,24.03
2019-02-19T00:18:21.347Z,23.20
2019-02-19T00:20:49.758Z,22.20
2019-02-19T00:23:18.190Z,22.40
2019-02-19T00:25:46.958Z,22.00
2019-02-19T00:28:15.372Z,23.80
2019-02-19T00:30:43.786Z,23.00
2019-02-19T00:33:12.186Z,26.00
2019-02-19T00:35:40.585Z,24.20
2019-02-19T00:38:08.995Z,23.50
2019-02-19T00:40:37.726Z,22.37
2019-02-19T00:43:06.073Z,22.30
2019-02-19T00:45:34.506Z,21.77
2019-02-19T00:48:02.842Z,22.20
2019-02-19T00:50:31.159Z,23.10
2019-02-19T00:52:59.599Z,23.00
2019-02-19T00:55:28.031Z,23.13
2019-02-19T00:57:56.357Z,22.03
2019-02-19T01:00:24.769Z,23.73
2019-02-19T01:02:53.194Z,22.93
2019-02-19T01:05:21.677Z,24.73
2019-02-19T01:07:51.326Z,22.97
2019-02-19T01:10:20.803Z,21.00
2019-02-19T01:12:49.227Z,22.60
2019-02-19T01:15:25.048Z,24.17
2019-02-19T01:17:47.686Z,23.47
2019-02-19T01:20:16.030Z,21.97
2019-02-19T01:22:44.450Z,22.30
2019-02-19T01:25:12.930Z,22.53
2019-02-19T01:27:41.334Z,21.50
2019-02-19T01:30:10.564Z,23.77
2019-02-19T01:32:38.958Z,21.63
2019-02-19T01:35:07.815Z,22.97
2019-02-19T01:37:36.214Z,22.93
2019-02-19T01:40:04.769Z,21.80
2019-02-19T01:42:33.176Z,21.30
2019-02-19T01:45:01.839Z,22.40
2019-02-19T01:47:30.498Z,21.27
2019-02-19T01:49:58.854Z,20.80
2019-02-19T01:52:27.271Z,19.93
2019-02-19T01:54:55.598Z,23.73
2019-02-19T01:57:24.005Z,22.07
2019-02-19T01:59:52.427Z,21.70
2019-02-19T02:02:20.841Z,19.90
2019-02-19T02:04:49.163Z,21.70
2019-02-19T02:07:17.496Z,22.03
2019-02-19T02:09:45.903Z,22.30
2019-02-19T02:12:14.603Z,21.57
2019-02-19T02:14:43.291Z,21.70
2019-02-19T02:17:11.616Z,21.53
2019-02-19T02:19:40.007Z,22.90
2019-02-19T02:22:08.426Z,21.17
2019-02-19T02:24:36.915Z,21.20
2019-02-19T02:27:05.306Z,22.83
2019-02-19T02:29:33.745Z,21.40
2019-02-19T02:32:02.079Z,24.03
2019-02-19T02:34:30.493Z,22.73
2019-02-19T02:36:58.930Z,21.90
2019-02-19T02:39:27.252Z,22.10
2019-02-19T02:41:55.679Z,21.70
2019-02-19T02:44:24.010Z,21.17
2019-02-19T02:46:52.326Z,22.40
2019-02-19T02:49:20.648Z,22.00
2019-02-19T02:51:49.092Z,22.23
2019-02-19T02:54:17.408Z,21.70
2019-02-19T02:56:46.053Z,22.13
2019-02-19T02:59:14.491Z,23.23
2019-02-19T03:01:42.890Z,23.87
2019-02-19T03:04:11.281Z,21.87
2019-02-19T03:06:44.535Z,22.07
2019-02-19T03:09:12.863Z,20.90
2019-02-19T03:11:41.188Z,20.13
2019-02-19T03:14:09.693Z,20.83
2019-02-19T03:16:38.167Z,19.57
2019-02-19T03:19:06.563Z,18.53
2019-02-19T03:21:34.934Z,18.53
2019-02-19T03:24:03.708Z,19.13
2019-02-19T03:26:32.032Z,18.70
2019-02-19T03:29:00.443Z,19.50
2019-02-19T03:31:28.783Z,18.00
2019-02-19T03:33:57.093Z,18.33
2019-02-19T03:36:25.551Z,19.40
2019-02-19T03:38:53.874Z,17.60
2019-02-19T03:41:22.274Z,19.10
2019-02-19T03:43:50.678Z,18.33
2019-02-19T03:46:19.079Z,18.97
2019-02-19T03:48:47.478Z,18.10
2019-02-19T03:51:15.818Z,19.27
2019-02-19T03:53:44.222Z,19.37
2019-02-19T03:56:12.599Z,18.73
2019-02-19T03:58:41.418Z,19.87
2019-02-19T04:01:09.808Z,18.73
2019-02-19T04:03:38.546Z,21.17
2019-02-19T04:06:06.958Z,19.07
2019-02-19T04:08:35.617Z,17.90
2019-02-19T04:11:04.016Z,20.07
2019-02-19T04:13:32.439Z,20.50
2019-02-19T04:16:00.839Z,19.47
2019-02-19T04:18:29.165Z,20.43
2019-02-19T04:20:57.501Z,20.60
2019-02-19T04:23:25.920Z,19.77
2019-02-19T04:25:54.242Z,19.90
2019-02-19T04:28:22.583Z,17.83
2019-02-19T04:30:50.911Z,17.93
2019-02-19T04:33:19.307Z,20.90
2019-02-19T04:35:47.743Z,22.17
2019-02-19T04:38:16.146Z,23.67
2019-02-19T04:40:44.561Z,19.93
2019-02-19T04:43:13.191Z,19.60
2019-02-19T04:45:41.574Z,22.07
2019-02-19T04:48:09.906Z,19.27
2019-02-19T04:50:38.234Z,18.67
2019-02-19T04:53:06.651Z,18.53
2019-02-19T04:55:35.051Z,19.43
2019-02-19T04:58:03.457Z,18.93
2019-02-19T05:00:31.861Z,19.13
2019-02-19T05:03:00.192Z,19.50
2019-02-19T05:05:28.593Z,18.37
2019-02-19T05:07:56.924Z,21.37
2019-02-19T05:10:25.258Z,19.80
2019-02-19T05:12:53.981Z,20.80
2019-02-19T05:15:22.383Z,20.93
2019-02-19T05:17:50.793Z,20.33
2019-02-19T05:20:19.139Z,20.47
2019-02-19T05:22:47.477Z,18.67
2019-02-19T05:25:15.895Z,21.53
2019-02-19T05:27:44.235Z,19.50
2019-02-19T05:30:12.619Z,19.60
2019-02-19T05:32:41.349Z,19.97
2019-02-19T05:35:09.782Z,19.63
2019-02-19T05:37:38.186Z,20.73
2019-02-19T05:40:06.820Z,20.73
2019-02-19T05:42:35.151Z,20.30
2019-02-19T05:45:03.766Z,19.93
2019-02-19T05:47:32.094Z,20.53
2019-02-19T05:50:01.478Z,21.40
2019-02-19T05:52:29.902Z,21.93
2019-02-19T05:54:59.394Z,22.27
2019-02-19T05:57:29.598Z,20.90
2019-02-19T05:59:58.024Z,20.73
2019-02-19T06:02:26.354Z,19.60
2019-02-19T06:04:54.696Z,21.23
2019-02-19T06:07:23.028Z,19.90
2019-02-19T06:09:51.348Z,19.47
2019-02-19T06:12:19.761Z,21.30
2019-02-19T06:14:48.161Z,17.40
2019-02-19T06:17:16.483Z,17.90
2019-02-19T06:19:44.905Z,18.70
2019-02-19T06:22:13.303Z,18.70
2019-02-19T06:24:41.623Z,19.57
2019-02-19T06:27:10.034Z,19.10
2019-02-19T06:29:38.347Z,17.40
2019-02-19T06:32:06.748Z,17.03
2019-02-19T06:34:35.079Z,18.83
2019-02-19T06:37:03.476Z,18.60
2019-02-19T06:39:32.224Z,17.57
2019-02-19T06:42:00.691Z,17.67
2019-02-19T06:44:29.158Z,19.00
2019-02-19T06:46:57.555Z,20.37
2019-02-19T06:49:25.906Z,18.97
2019-02-19T06:51:54.234Z,19.93
2019-02-19T06:54:22.646Z,18.47
2019-02-19T06:56:50.974Z,20.10
2019-02-19T06:59:19.370Z,19.97
2019-02-19T07:02:04.718Z,21.80
2019-02-19T07:04:39.474Z,19.47
2019-02-19T07:07:07.826Z,19.83
2019-02-19T07:09:36.236Z,21.30
2019-02-19T07:12:04.630Z,21.00
2019-02-19T07:14:33.049Z,22.50
2019-02-19T07:17:01.452Z,22.77
2019-02-19T07:19:29.776Z,22.87
2019-02-19T07:21:58.138Z,24.17
2019-02-19T07:24:26.467Z,22.03
2019-02-19T07:26:54.779Z,23.23
2019-02-19T07:29:23.402Z,22.73
2019-02-19T07:31:51.727Z,22.30
2019-02-19T07:34:20.363Z,23.70
2019-02-19T07:36:48.703Z,23.70
2019-02-19T07:39:17.103Z,24.40
2019-02-19T07:41:45.431Z,25.37
2019-02-19T07:44:13.843Z,24.97
2019-02-19T07:46:42.239Z,24.40
2019-02-19T07:49:10.566Z,27.67
2019-02-19T07:51:38.907Z,24.67
2019-02-19T07:54:07.310Z,23.70
2019-02-19T07:56:35.630Z,25.27
2019-02-19T07:59:03.964Z,26.07
2019-02-19T08:01:32.379Z,28.07
2019-02-19T08:04:00.690Z,27.00
2019-02-19T08:06:29.110Z,26.37
2019-02-19T08:08:57.854Z,29.10
2019-02-19T08:11:26.255Z,29.10
2019-02-19T08:13:54.670Z,30.20
2019-02-19T08:16:23.002Z,28.67
2019-02-19T08:18:51.344Z,28.70
2019-02-19T08:21:19.742Z,31.87
2019-02-19T08:23:48.111Z,31.27
2019-02-19T08:26:17.412Z,31.57
2019-02-19T08:28:45.754Z,30.60
2019-02-19T08:31:14.168Z,29.80
2019-02-19T08:33:42.507Z,30.97
2019-02-19T08:36:10.927Z,30.10
2019-02-19T08:38:39.324Z,28.03
2019-02-19T08:41:07.663Z,28.97
2019-02-19T08:43:36.007Z,28.60
2019-02-19T08:46:04.727Z,29.90
2019-02-19T08:48:33.067Z,29.90
2019-02-19T08:51:01.407Z,28.40
2019-02-19T08:53:29.735Z,27.53
2019-02-19T08:55:58.073Z,30.17
2019-02-19T08:58:26.511Z,29.90
2019-02-19T09:00:55.139Z,28.73
2019-02-19T09:03:23.467Z,29.40
2019-02-19T09:05:51.795Z,27.10
2019-02-19T09:08:20.242Z,26.60
2019-02-19T09:10:48.574Z,25.20
2019-02-19T09:13:16.922Z,25.67
2019-02-19T09:15:45.237Z,25.30
2019-02-19T09:18:13.696Z,24.40
2019-02-19T09:20:42.035Z,26.40
2019-02-19T09:23:10.528Z,25.80
2019-02-19T09:25:38.929Z,25.77
2019-02-19T09:28:07.266Z,26.17
2019-02-19T09:30:35.596Z,25.37
2019-02-19T09:33:03.912Z,26.30
2019-02-19T09:35:32.329Z,26.17
2019-02-19T09:38:00.748Z,25.00
2019-02-19T09:40:29.151Z,23.30
2019-02-19T09:42:57.573Z,26.47
2019-02-19T09:45:26.224Z,27.80
2019-02-19T09:48:00.979Z,24.53
2019-02-19T09:50:24.682Z,25.37
2019-02-19T09:52:59.770Z,24.97
2019-02-19T09:55:23.212Z,24.83
2019-02-19T09:57:51.816Z,25.57
2019-02-19T10:00:20.162Z,24.80
2019-02-19T10:02:48.541Z,24.67
2019-02-19T10:05:16.903Z,24.00
2019-02-19T10:07:45.556Z,24.10
2019-02-19T10:10:14.475Z,24.27
2019-02-19T10:12:42.829Z,23.53
2019-02-19T10:15:11.639Z,22.30
2019-02-19T10:17:40.054Z,21.43
2019-02-19T10:20:08.487Z,23.37
2019-02-19T10:22:36.944Z,23.70
2019-02-19T10:25:05.872Z,23.43
2019-02-19T10:27:34.208Z,22.77
2019-02-19T10:30:02.621Z,23.23
2019-02-19T10:32:32.194Z,22.40
2019-02-19T10:35:00.542Z,23.53
2019-02-19T10:37:28.864Z,22.07
2019-02-19T10:39:57.181Z,22.10
2019-02-19T10:42:25.835Z,21.60
2019-02-19T10:44:54.172Z,21.00
2019-02-19T10:47:22.647Z,19.40
2019-02-19T10:49:51.004Z,18.43
2019-02-19T10:52:19.747Z,20.17
2019-02-19T10:54:48.178Z,20.17
2019-02-19T10:57:17.196Z,20.77
2019-02-19T19:36:41.867Z,38.43
2019-02-19T19:39:10.194Z,34.23
2019-02-19T19:41:39.711Z,31.63
2019-02-19T19:44:08.031Z,44.33
2019-02-19T19:46:36.363Z,40.30
2019-02-19T19:49:05.132Z,40.47
2019-02-19T19:51:33.457Z,34.20
2019-02-19T19:54:01.787Z,34.37
2019-02-19T19:56:30.188Z,34.90
2019-02-19T19:58:58.529Z,33.17
2019-02-19T20:01:26.847Z,34.87
2019-02-19T20:03:55.182Z,34.67
2019-02-19T20:06:23.982Z,34.67
2019-02-19T20:08:52.299Z,33.47
2019-02-19T20:11:20.714Z,35.97
2019-02-19T20:13:49.061Z,34.57
2019-02-19T20:16:17.458Z,31.80
2019-02-19T20:18:45.818Z,34.50
2019-02-19T20:21:14.170Z,32.07
2019-02-19T20:23:42.512Z,30.40
2019-02-19T20:26:10.943Z,32.30
2019-02-19T20:28:39.420Z,33.80
2019-02-19T20:31:07.764Z,32.70
2019-02-19T20:33:36.260Z,31.00
2019-02-19T20:36:04.660Z,29.93
2019-02-19T20:38:33.071Z,31.67
2019-02-19T20:41:01.431Z,29.80
2019-02-19T20:43:30.322Z,29.47
2019-02-19T20:45:58.909Z,31.90
2019-02-19T20:48:27.321Z,31.80
2019-02-19T20:50:55.650Z,30.17
2019-02-19T20:53:24.315Z,31.77
2019-02-19T20:55:53.207Z,31.10
2019-02-19T20:58:21.706Z,30.77
2019-02-19T21:00:50.143Z,33.37
2019-02-19T21:03:18.577Z,33.00
2019-02-19T21:05:47.090Z,35.60
2019-02-19T21:08:15.423Z,38.53
2019-02-19T21:10:43.786Z,34.00
2019-02-19T21:13:12.674Z,35.63
2019-02-19T21:15:41.065Z,35.67
2019-02-19T21:18:09.684Z,32.87
2019-02-19T21:20:38.430Z,33.17
2019-02-19T21:23:06.998Z,34.90
2019-02-19T21:25:35.696Z,34.23
2019-02-19T21:28:04.295Z,35.90
2019-02-19T21:30:32.793Z,35.37
2019-02-19T21:33:01.667Z,34.43
2019-02-19T21:35:30.270Z,31.97
2019-02-19T21:37:59.451Z,31.07
2019-02-19T21:40:27.802Z,31.43
2019-02-19T21:42:56.273Z,32.37
2019-02-19T21:45:24.736Z,30.50
2019-02-19T21:47:53.168Z,31.27
2019-02-19T21:50:21.583Z,31.83
2019-02-19T21:52:50.328Z,31.57
2019-02-19T21:55:18.787Z,33.80
2019-02-19T21:57:47.389Z,33.10
2019-02-19T22:00:17.122Z,31.03
2019-02-19T22:02:47.071Z,30.57
2019-02-19T22:05:15.498Z,28.43
2019-02-19T22:07:44.379Z,29.57
2019-02-19T22:10:13.978Z,30.20
2019-02-19T22:12:42.332Z,28.40
2019-02-19T22:15:10.786Z,27.20
2019-02-19T22:17:39.200Z,27.50
2019-02-19T22:20:10.084Z,26.47
2019-02-19T22:22:38.494Z,26.50
2019-02-19T22:25:07.091Z,26.80
2019-02-19T22:27:35.452Z,30.13
2019-02-19T22:30:04.270Z,27.60
2019-02-19T22:32:32.879Z,27.00
2019-02-19T22:35:01.219Z,27.13
2019-02-19T22:37:29.559Z,27.17
2019-02-19T22:39:57.884Z,27.97
2019-02-19T22:42:26.487Z,27.90
2019-02-19T22:44:55.062Z,27.50
2019-02-19T22:47:23.539Z,27.20
2019-02-19T22:49:51.971Z,29.13
2019-02-19T22:52:20.391Z,27.90
2019-02-19T22:55:14.017Z,25.50
2019-02-19T22:57:42.437Z,26.57
2019-02-19T23:03:25.031Z,25.23
2019-02-19T23:05:53.434Z,23.83
2019-02-19T23:08:21.820Z,24.13
2019-02-19T23:10:50.315Z,27.90
2019-02-19T23:13:18.634Z,26.20
2019-02-19T23:15:47.390Z,25.50
2019-02-19T23:18:16.794Z,22.80
2019-02-19T23:20:45.202Z,26.43
2019-02-19T23:23:13.594Z,26.47
2019-02-19T23:25:41.944Z,25.83
2019-02-19T23:28:10.443Z,24.80
2019-02-19T23:30:39.264Z,24.03
2019-02-19T23:33:07.927Z,23.13
2019-02-19T23:35:40.906Z,24.47
2019-02-19T23:38:09.684Z,24.30
2019-02-19T23:40:38.378Z,23.20
2019-02-19T23:43:06.711Z,23.97
2019-02-19T23:45:36.108Z,22.73
2019-02-19T23:48:04.526Z,23.00
2019-02-19T23:50:33.911Z,23.40
2019-02-19T23:53:03.221Z,21.33
2019-02-19T23:55:31.607Z,22.80
2019-02-19T23:58:00.287Z,23.00
